sensor_id;sensor_type;location;lat;lon;timestamp;pressure;altitude;pressure_sealevel;temperature;humidity
50684;BME280;36654;45.042;38.994;2024-01-11T00:00:31;101861.44;;;-2.09;85.72
50684;BME280;36654;45.042;38.994;2024-01-11T00:02:56;101904.19;;;-1.83;85.36
50684;BME280;36654;45.042;38.994;2024-01-11T00:05:22;101919.78;;;-1.83;85.69
50684;BME280;36654;45.042;38.994;2024-01-11T00:07:48;101903.72;;;-1.89;85.52
50684;BME280;36654;45.042;38.994;2024-01-11T00:10:15;101916.38;;;-1.82;85.68
50684;BME280;36654;45.042;38.994;2024-01-11T00:12:41;101918.22;;;-1.81;85.49
50684;BME280;36654;45.042;38.994;2024-01-11T00:15:07;101918.63;;;-1.87;85.76
50684;BME280;36654;45.042;38.994;2024-01-11T00:17:33;101921.56;;;-1.82;85.70
50684;BME280;36654;45.042;38.994;2024-01-11T00:19:59;101909.38;;;-1.83;85.49
50684;BME280;36654;45.042;38.994;2024-01-11T00:22:24;101916.28;;;-1.84;85.68
50684;BME280;36654;45.042;38.994;2024-01-11T00:24:50;101917.41;;;-1.80;85.65
50684;BME280;36654;45.042;38.994;2024-01-11T00:27:16;101922.50;;;-1.82;85.44
50684;BME280;36654;45.042;38.994;2024-01-11T00:29:41;101902.09;;;-1.87;85.64
50684;BME280;36654;45.042;38.994;2024-01-11T00:32:07;101914.81;;;-1.80;85.87
50684;BME280;36654;45.042;38.994;2024-01-11T00:34:33;101911.69;;;-1.76;85.75
50684;BME280;36654;45.042;38.994;2024-01-11T00:36:58;101901.81;;;-1.80;85.92
50684;BME280;36654;45.042;38.994;2024-01-11T00:39:24;101885.19;;;-1.82;85.62
50684;BME280;36654;45.042;38.994;2024-01-11T00:41:50;101899.22;;;-1.80;85.70
50684;BME280;36654;45.042;38.994;2024-01-11T00:44:16;101883.38;;;-1.83;85.77
50684;BME280;36654;45.042;38.994;2024-01-11T00:46:42;101825.47;;;-2.14;85.88
50684;BME280;36654;45.042;38.994;2024-01-11T00:49:08;101880.91;;;-1.82;86.16
50684;BME280;36654;45.042;38.994;2024-01-11T00:51:33;101813.91;;;-2.18;86.15
50684;BME280;36654;45.042;38.994;2024-01-11T00:53:59;101876.63;;;-1.81;86.21
50684;BME280;36654;45.042;38.994;2024-01-11T00:56:25;101851.88;;;-1.98;86.29
50684;BME280;36654;45.042;38.994;2024-01-11T00:58:51;101861.09;;;-1.91;86.36
50684;BME280;36654;45.042;38.994;2024-01-11T01:01:17;101875.81;;;-1.80;86.46
50684;BME280;36654;45.042;38.994;2024-01-11T01:03:43;101881.81;;;-1.81;86.39
50684;BME280;36654;45.042;38.994;2024-01-11T01:06:08;101861.91;;;-1.81;86.54
50684;BME280;36654;45.042;38.994;2024-01-11T01:08:34;101867.56;;;-1.86;86.48
50684;BME280;36654;45.042;38.994;2024-01-11T01:11:00;101860.13;;;-1.82;86.34
50684;BME280;36654;45.042;38.994;2024-01-11T01:13:25;101847.41;;;-1.89;86.59
50684;BME280;36654;45.042;38.994;2024-01-11T01:15:51;101794.97;;;-2.17;86.44
50684;BME280;36654;45.042;38.994;2024-01-11T01:18:16;101856.34;;;-1.85;86.52
50684;BME280;36654;45.042;38.994;2024-01-11T01:20:42;101843.91;;;-1.89;86.65
50684;BME280;36654;45.042;38.994;2024-01-11T01:23:08;101832.06;;;-1.86;86.59
50684;BME280;36654;45.042;38.994;2024-01-11T01:25:34;101848.03;;;-1.81;86.77
50684;BME280;36654;45.042;38.994;2024-01-11T01:27:59;101843.59;;;-1.82;86.72
50684;BME280;36654;45.042;38.994;2024-01-11T01:30:26;101849.81;;;-1.80;86.83
50684;BME280;36654;45.042;38.994;2024-01-11T01:32:53;101775.75;;;-2.19;86.89
50684;BME280;36654;45.042;38.994;2024-01-11T01:35:18;101845.28;;;-1.83;86.80
50684;BME280;36654;45.042;38.994;2024-01-11T01:37:44;101847.50;;;-1.77;86.96
50684;BME280;36654;45.042;38.994;2024-01-11T01:40:11;101838.00;;;-1.77;87.11
50684;BME280;36654;45.042;38.994;2024-01-11T01:42:44;101833.47;;;-1.79;86.87
50684;BME280;36654;45.042;38.994;2024-01-11T01:45:10;101844.31;;;-1.73;87.00
50684;BME280;36654;45.042;38.994;2024-01-11T01:47:38;101831.31;;;-1.73;87.04
50684;BME280;36654;45.042;38.994;2024-01-11T01:50:06;101827.16;;;-1.71;86.96
50684;BME280;36654;45.042;38.994;2024-01-11T01:52:33;101812.66;;;-1.79;86.93
50684;BME280;36654;45.042;38.994;2024-01-11T01:55:01;101837.56;;;-1.71;86.93
50684;BME280;36654;45.042;38.994;2024-01-11T01:57:27;101839.34;;;-1.70;86.89
50684;BME280;36654;45.042;38.994;2024-01-11T01:59:54;101834.81;;;-1.73;86.69
50684;BME280;36654;45.042;38.994;2024-01-11T02:02:20;101826.03;;;-1.75;86.92
50684;BME280;36654;45.042;38.994;2024-01-11T02:04:46;101782.44;;;-2.11;86.77
50684;BME280;36654;45.042;38.994;2024-01-11T02:07:12;101814.91;;;-1.84;86.82
50684;BME280;36654;45.042;38.994;2024-01-11T02:09:40;101803.59;;;-1.84;86.68
50684;BME280;36654;45.042;38.994;2024-01-11T02:12:06;101813.44;;;-1.80;86.76
50684;BME280;36654;45.042;38.994;2024-01-11T02:14:34;101760.09;;;-2.09;86.68
50684;BME280;36654;45.042;38.994;2024-01-11T02:17:02;101810.81;;;-1.80;86.83
50684;BME280;36654;45.042;38.994;2024-01-11T02:19:28;101799.97;;;-1.86;86.93
50684;BME280;36654;45.042;38.994;2024-01-11T02:21:54;101804.06;;;-1.78;86.80
50684;BME280;36654;45.042;38.994;2024-01-11T02:24:20;101798.84;;;-1.78;86.70
50684;BME280;36654;45.042;38.994;2024-01-11T02:27:02;101784.38;;;-1.86;86.86
50684;BME280;36654;45.042;38.994;2024-01-11T02:29:29;101783.03;;;-1.81;86.81
50684;BME280;36654;45.042;38.994;2024-01-11T02:32:00;101786.53;;;-1.81;86.83
50684;BME280;36654;45.042;38.994;2024-01-11T02:34:28;101713.41;;;-2.19;86.75
50684;BME280;36654;45.042;38.994;2024-01-11T02:36:55;101732.53;;;-2.07;86.85
50684;BME280;36654;45.042;38.994;2024-01-11T02:39:22;101785.31;;;-1.74;86.93
50684;BME280;36654;45.042;38.994;2024-01-11T02:41:50;101781.03;;;-1.74;86.72
50684;BME280;36654;45.042;38.994;2024-01-11T02:44:16;101771.28;;;-1.76;86.84
50684;BME280;36654;45.042;38.994;2024-01-11T02:46:42;101766.56;;;-1.70;86.67
50684;BME280;36654;45.042;38.994;2024-01-11T02:49:08;101771.75;;;-1.70;86.71
50684;BME280;36654;45.042;38.994;2024-01-11T02:51:34;101766.56;;;-1.70;86.77
50684;BME280;36654;45.042;38.994;2024-01-11T02:54:01;101716.06;;;-1.96;86.55
50684;BME280;36654;45.042;38.994;2024-01-11T02:56:26;101766.00;;;-1.66;86.60
50684;BME280;36654;45.042;38.994;2024-01-11T02:58:52;101763.63;;;-1.63;86.50
50684;BME280;36654;45.042;38.994;2024-01-11T03:01:17;101755.06;;;-1.62;86.59
50684;BME280;36654;45.042;38.994;2024-01-11T03:03:43;101704.34;;;-1.90;86.52
50684;BME280;36654;45.042;38.994;2024-01-11T03:06:09;101764.34;;;-1.54;86.43
50684;BME280;36654;45.042;38.994;2024-01-11T03:08:35;101755.88;;;-1.51;86.51
50684;BME280;36654;45.042;38.994;2024-01-11T03:11:00;101768.19;;;-1.48;86.51
50684;BME280;36654;45.042;38.994;2024-01-11T03:13:27;101748.75;;;-1.54;86.34
50684;BME280;36654;45.042;38.994;2024-01-11T03:15:52;101743.88;;;-1.49;86.39
50684;BME280;36654;45.042;38.994;2024-01-11T03:18:18;101749.31;;;-1.46;86.18
50684;BME280;36654;45.042;38.994;2024-01-11T03:20:44;101741.75;;;-1.55;86.43
50684;BME280;36654;45.042;38.994;2024-01-11T03:23:09;101767.88;;;-1.41;86.17
50684;BME280;36654;45.042;38.994;2024-01-11T03:25:35;101742.19;;;-1.48;86.30
50684;BME280;36654;45.042;38.994;2024-01-11T03:28:01;101742.00;;;-1.40;86.12
50684;BME280;36654;45.042;38.994;2024-01-11T03:30:26;101759.75;;;-1.34;86.03
50684;BME280;36654;45.042;38.994;2024-01-11T03:32:52;101756.34;;;-1.33;86.18
50684;BME280;36654;45.042;38.994;2024-01-11T03:35:18;101750.59;;;-1.29;85.79
50684;BME280;36654;45.042;38.994;2024-01-11T03:37:44;101749.56;;;-1.31;85.91
50684;BME280;36654;45.042;38.994;2024-01-11T03:40:10;101740.97;;;-1.30;85.76
50684;BME280;36654;45.042;38.994;2024-01-11T03:42:36;101748.75;;;-1.30;85.75
50684;BME280;36654;45.042;38.994;2024-01-11T03:45:02;101725.09;;;-1.45;85.57
50684;BME280;36654;45.042;38.994;2024-01-11T03:47:28;101743.56;;;-1.30;85.46
50684;BME280;36654;45.042;38.994;2024-01-11T03:49:54;101739.72;;;-1.35;85.48
50684;BME280;36654;45.042;38.994;2024-01-11T03:52:19;101742.44;;;-1.34;85.39
50684;BME280;36654;45.042;38.994;2024-01-11T03:54:45;101743.34;;;-1.33;85.43
50684;BME280;36654;45.042;38.994;2024-01-11T03:57:11;101708.25;;;-1.62;85.35
50684;BME280;36654;45.042;38.994;2024-01-11T03:59:37;101723.66;;;-1.41;85.65
50684;BME280;36654;45.042;38.994;2024-01-11T04:02:03;101731.34;;;-1.31;85.54
50684;BME280;36654;45.042;38.994;2024-01-11T04:04:28;101730.91;;;-1.37;85.60
50684;BME280;36654;45.042;38.994;2024-01-11T04:06:54;101732.72;;;-1.36;85.69
50684;BME280;36654;45.042;38.994;2024-01-11T04:09:20;101742.88;;;-1.39;85.64
50684;BME280;36654;45.042;38.994;2024-01-11T04:11:46;101700.22;;;-1.53;85.81
50684;BME280;36654;45.042;38.994;2024-01-11T04:14:11;101712.56;;;-1.39;85.94
50684;BME280;36654;45.042;38.994;2024-01-11T04:16:43;101722.09;;;-1.39;85.81
50684;BME280;36654;45.042;38.994;2024-01-11T04:19:09;101720.03;;;-1.43;85.97
50684;BME280;36654;45.042;38.994;2024-01-11T04:21:35;101653.63;;;-1.74;85.97
50684;BME280;36654;45.042;38.994;2024-01-11T04:24:02;101713.25;;;-1.41;85.95
50684;BME280;36654;45.042;38.994;2024-01-11T04:26:28;101701.59;;;-1.46;86.12
50684;BME280;36654;45.042;38.994;2024-01-11T04:28:53;101695.69;;;-1.56;86.07
50684;BME280;36654;45.042;38.994;2024-01-11T04:31:19;101695.25;;;-1.50;86.10
50684;BME280;36654;45.042;38.994;2024-01-11T04:33:46;101710.16;;;-1.47;86.28
50684;BME280;36654;45.042;38.994;2024-01-11T04:36:12;101697.28;;;-1.46;86.40
50684;BME280;36654;45.042;38.994;2024-01-11T04:38:38;101635.88;;;-1.79;86.44
50684;BME280;36654;45.042;38.994;2024-01-11T04:41:10;101672.75;;;-1.61;86.44
50684;BME280;36654;45.042;38.994;2024-01-11T04:43:41;101694.69;;;-1.46;86.69
50684;BME280;36654;45.042;38.994;2024-01-11T04:46:16;101688.81;;;-1.43;86.57
50684;BME280;36654;45.042;38.994;2024-01-11T04:48:42;101689.03;;;-1.40;86.79
50684;BME280;36654;45.042;38.994;2024-01-11T04:51:08;101674.44;;;-1.50;86.71
50684;BME280;36654;45.042;38.994;2024-01-11T04:53:39;101688.94;;;-1.42;86.90
50684;BME280;36654;45.042;38.994;2024-01-11T04:56:06;101623.69;;;-1.68;86.85
50684;BME280;36654;45.042;38.994;2024-01-11T04:58:32;101690.53;;;-1.32;87.09
50684;BME280;36654;45.042;38.994;2024-01-11T05:00:58;101687.94;;;-1.32;87.19
50684;BME280;36654;45.042;38.994;2024-01-11T05:03:24;101681.72;;;-1.34;87.48
50684;BME280;36654;45.042;38.994;2024-01-11T05:05:49;101688.16;;;-1.29;87.49
50684;BME280;36654;45.042;38.994;2024-01-11T05:08:15;101689.50;;;-1.22;87.60
50684;BME280;36654;45.042;38.994;2024-01-11T05:10:40;101665.97;;;-1.24;87.85
50684;BME280;36654;45.042;38.994;2024-01-11T05:13:06;101649.00;;;-1.42;87.85
50684;BME280;36654;45.042;38.994;2024-01-11T05:15:32;101626.16;;;-1.46;88.02
50684;BME280;36654;45.042;38.994;2024-01-11T05:17:58;101623.22;;;-1.39;88.23
50684;BME280;36654;45.042;38.994;2024-01-11T05:20:24;101670.72;;;-1.06;88.38
50684;BME280;36654;45.042;38.994;2024-01-11T05:22:49;101608.41;;;-1.40;88.33
50684;BME280;36654;45.042;38.994;2024-01-11T05:25:15;101672.28;;;-1.09;88.38
50684;BME280;36654;45.042;38.994;2024-01-11T05:27:40;101638.38;;;-1.22;88.33
50684;BME280;36654;45.042;38.994;2024-01-11T05:30:06;101661.19;;;-1.06;88.39
50684;BME280;36654;45.042;38.994;2024-01-11T05:32:32;101641.06;;;-1.20;88.28
50684;BME280;36654;45.042;38.994;2024-01-11T05:34:58;101654.75;;;-1.23;88.11
50684;BME280;36654;45.042;38.994;2024-01-11T05:37:24;101659.75;;;-1.26;87.96
50684;BME280;36654;45.042;38.994;2024-01-11T05:39:49;101612.47;;;-1.56;87.93
50684;BME280;36654;45.042;38.994;2024-01-11T05:42:15;101664.38;;;-1.34;87.88
50684;BME280;36654;45.042;38.994;2024-01-11T05:44:41;101659.66;;;-1.39;87.88
50684;BME280;36654;45.042;38.994;2024-01-11T05:47:06;101667.44;;;-1.39;87.95
50684;BME280;36654;45.042;38.994;2024-01-11T05:49:32;101664.84;;;-1.39;87.97
50684;BME280;36654;45.042;38.994;2024-01-11T05:51:57;101666.66;;;-1.38;88.03
50684;BME280;36654;45.042;38.994;2024-01-11T05:54:23;101656.16;;;-1.40;88.03
50684;BME280;36654;45.042;38.994;2024-01-11T05:56:49;101653.09;;;-1.34;88.25
50684;BME280;36654;45.042;38.994;2024-01-11T05:59:17;101667.13;;;-1.32;88.11
50684;BME280;36654;45.042;38.994;2024-01-11T06:01:44;101649.91;;;-1.30;87.96
50684;BME280;36654;45.042;38.994;2024-01-11T06:04:09;101662.13;;;-1.29;88.04
50684;BME280;36654;45.042;38.994;2024-01-11T06:06:35;101644.25;;;-1.24;87.95
50684;BME280;36654;45.042;38.994;2024-01-11T06:09:00;101650.59;;;-1.21;88.10
50684;BME280;36654;45.042;38.994;2024-01-11T06:11:29;101641.19;;;-1.19;88.08
50684;BME280;36654;45.042;38.994;2024-01-11T06:13:55;101625.59;;;-1.19;88.02
50684;BME280;36654;45.042;38.994;2024-01-11T06:16:21;101636.88;;;-1.06;87.92
50684;BME280;36654;45.042;38.994;2024-01-11T06:18:46;101639.00;;;-1.01;88.11
50684;BME280;36654;45.042;38.994;2024-01-11T06:21:12;101633.25;;;-0.97;87.96
50684;BME280;36654;45.042;38.994;2024-01-11T06:23:37;101618.66;;;-1.06;87.87
50684;BME280;36654;45.042;38.994;2024-01-11T06:26:03;101629.97;;;-0.94;87.54
50684;BME280;36654;45.042;38.994;2024-01-11T06:28:29;101566.66;;;-1.30;87.62
50684;BME280;36654;45.042;38.994;2024-01-11T06:30:58;101593.41;;;-1.08;87.63
50684;BME280;36654;45.042;38.994;2024-01-11T06:33:24;101619.28;;;-0.85;87.85
50684;BME280;36654;45.042;38.994;2024-01-11T06:35:49;101613.19;;;-0.86;87.63
50684;BME280;36654;45.042;38.994;2024-01-11T06:38:15;101602.34;;;-0.92;87.89
50684;BME280;36654;45.042;38.994;2024-01-11T06:40:41;101604.78;;;-0.82;88.07
50684;BME280;36654;45.042;38.994;2024-01-11T06:43:06;101599.00;;;-0.78;87.88
50684;BME280;36654;45.042;38.994;2024-01-11T06:45:32;101598.53;;;-0.72;88.11
50684;BME280;36654;45.042;38.994;2024-01-11T06:47:58;101588.66;;;-0.64;88.12
50684;BME280;36654;45.042;38.994;2024-01-11T06:50:23;101595.88;;;-0.60;88.04
50684;BME280;36654;45.042;38.994;2024-01-11T06:52:49;101586.59;;;-0.57;88.01
50684;BME280;36654;45.042;38.994;2024-01-11T06:55:15;101578.16;;;-0.53;87.91
50684;BME280;36654;45.042;38.994;2024-01-11T06:57:41;101581.28;;;-0.45;88.08
50684;BME280;36654;45.042;38.994;2024-01-11T07:00:07;101555.03;;;-0.48;87.59
50684;BME280;36654;45.042;38.994;2024-01-11T07:02:32;101566.91;;;-0.40;87.72
50684;BME280;36654;45.042;38.994;2024-01-11T07:04:58;101550.88;;;-0.33;87.51
50684;BME280;36654;45.042;38.994;2024-01-11T07:07:24;101555.91;;;-0.23;87.62
50684;BME280;36654;45.042;38.994;2024-01-11T07:09:50;101553.72;;;-0.16;87.46
50684;BME280;36654;45.042;38.994;2024-01-11T07:12:15;101490.16;;;-0.32;87.17
50684;BME280;36654;45.042;38.994;2024-01-11T07:14:42;101537.31;;;-0.02;87.32
50684;BME280;36654;45.042;38.994;2024-01-11T07:17:07;101501.78;;;-0.13;86.81
50684;BME280;36654;45.042;38.994;2024-01-11T07:19:33;101490.88;;;-0.08;86.63
50684;BME280;36654;45.042;38.994;2024-01-11T07:21:59;101512.63;;;0.06;86.71
50684;BME280;36654;45.042;38.994;2024-01-11T07:24:24;101525.06;;;0.24;86.25
50684;BME280;36654;45.042;38.994;2024-01-11T07:26:50;101519.66;;;0.20;86.04
50684;BME280;36654;45.042;38.994;2024-01-11T07:29:16;101503.09;;;0.20;85.95
50684;BME280;36654;45.042;38.994;2024-01-11T07:31:41;101517.22;;;0.37;86.13
50684;BME280;36654;45.042;38.994;2024-01-11T07:34:07;101514.16;;;0.42;86.17
50684;BME280;36654;45.042;38.994;2024-01-11T07:36:33;101510.31;;;0.51;86.39
50684;BME280;36654;45.042;38.994;2024-01-11T07:38:58;101511.69;;;0.59;86.44
50684;BME280;36654;45.042;38.994;2024-01-11T07:41:24;101498.34;;;0.68;86.39
50684;BME280;36654;45.042;38.994;2024-01-11T07:43:50;101496.47;;;0.80;86.41
50684;BME280;36654;45.042;38.994;2024-01-11T07:46:15;101495.25;;;0.88;86.14
50684;BME280;36654;45.042;38.994;2024-01-11T07:48:41;101479.34;;;0.98;86.24
50684;BME280;36654;45.042;38.994;2024-01-11T07:51:07;101485.88;;;1.05;86.26
50684;BME280;36654;45.042;38.994;2024-01-11T07:53:33;101429.88;;;0.86;86.34
50684;BME280;36654;45.042;38.994;2024-01-11T07:55:58;101481.38;;;1.17;86.30
50684;BME280;36654;45.042;38.994;2024-01-11T07:58:24;101463.38;;;1.22;86.13
50684;BME280;36654;45.042;38.994;2024-01-11T08:00:49;101460.50;;;1.32;86.00
50684;BME280;36654;45.042;38.994;2024-01-11T08:03:15;101438.34;;;1.40;85.85
50684;BME280;36654;45.042;38.994;2024-01-11T08:05:41;101416.34;;;1.37;85.78
50684;BME280;36654;45.042;38.994;2024-01-11T08:08:08;101437.25;;;1.51;85.74
50684;BME280;36654;45.042;38.994;2024-01-11T08:10:34;101421.75;;;1.55;85.60
50684;BME280;36654;45.042;38.994;2024-01-11T08:13:00;101400.84;;;1.55;85.63
50684;BME280;36654;45.042;38.994;2024-01-11T08:15:25;101419.06;;;1.68;85.71
50684;BME280;36654;45.042;38.994;2024-01-11T08:17:51;101404.84;;;1.63;85.75
50684;BME280;36654;45.042;38.994;2024-01-11T08:20:17;101405.72;;;1.78;85.84
50684;BME280;36654;45.042;38.994;2024-01-11T08:22:42;101389.41;;;1.82;86.07
50684;BME280;36654;45.042;38.994;2024-01-11T08:25:14;101399.34;;;1.89;86.21
50684;BME280;36654;45.042;38.994;2024-01-11T08:27:40;101367.97;;;1.89;86.02
50684;BME280;36654;45.042;38.994;2024-01-11T08:30:06;101381.09;;;2.06;86.24
50684;BME280;36654;45.042;38.994;2024-01-11T08:32:33;101388.91;;;2.21;86.20
50684;BME280;36654;45.042;38.994;2024-01-11T08:35:05;101371.84;;;2.27;85.88
50684;BME280;36654;45.042;38.994;2024-01-11T08:37:32;101368.72;;;2.34;85.29
50684;BME280;36654;45.042;38.994;2024-01-11T08:39:58;101358.97;;;2.32;85.05
50684;BME280;36654;45.042;38.994;2024-01-11T08:42:23;101353.38;;;2.41;85.02
50684;BME280;36654;45.042;38.994;2024-01-11T08:44:49;101356.06;;;2.42;85.08
50684;BME280;36654;45.042;38.994;2024-01-11T08:47:14;101337.31;;;2.34;84.94
50684;BME280;36654;45.042;38.994;2024-01-11T08:49:40;101333.97;;;2.37;84.94
50684;BME280;36654;45.042;38.994;2024-01-11T08:52:06;101335.84;;;2.40;85.16
50684;BME280;36654;45.042;38.994;2024-01-11T08:54:33;101323.50;;;2.37;85.03
50684;BME280;36654;45.042;38.994;2024-01-11T08:56:59;101304.94;;;2.49;85.24
50684;BME280;36654;45.042;38.994;2024-01-11T08:59:25;101307.72;;;2.52;85.30
50684;BME280;36654;45.042;38.994;2024-01-11T09:01:57;101308.53;;;2.51;85.21
50684;BME280;36654;45.042;38.994;2024-01-11T09:04:22;101290.47;;;2.55;85.01
50684;BME280;36654;45.042;38.994;2024-01-11T09:06:48;101291.84;;;2.65;85.02
50684;BME280;36654;45.042;38.994;2024-01-11T09:09:14;101274.50;;;2.67;85.12
50684;BME280;36654;45.042;38.994;2024-01-11T09:11:43;101290.50;;;2.90;84.90
50684;BME280;36654;45.042;38.994;2024-01-11T09:14:09;101288.66;;;3.05;84.69
50684;BME280;36654;45.042;38.994;2024-01-11T09:16:39;101276.22;;;3.19;84.52
50684;BME280;36654;45.042;38.994;2024-01-11T09:19:05;101261.78;;;3.27;83.69
50684;BME280;36654;45.042;38.994;2024-01-11T09:21:31;101256.91;;;3.35;83.02
50684;BME280;36654;45.042;38.994;2024-01-11T09:23:57;101255.56;;;3.43;82.32
50684;BME280;36654;45.042;38.994;2024-01-11T09:26:22;101265.13;;;3.60;81.63
50684;BME280;36654;45.042;38.994;2024-01-11T09:28:51;101245.81;;;3.58;81.62
50684;BME280;36654;45.042;38.994;2024-01-11T09:31:16;101239.53;;;3.55;81.64
50684;BME280;36654;45.042;38.994;2024-01-11T09:33:42;101244.53;;;3.68;81.66
50684;BME280;36654;45.042;38.994;2024-01-11T09:36:11;101245.53;;;3.72;81.59
50684;BME280;36654;45.042;38.994;2024-01-11T09:38:37;101237.84;;;3.75;80.99
50684;BME280;36654;45.042;38.994;2024-01-11T09:41:12;101170.94;;;3.45;80.78
50684;BME280;36654;45.042;38.994;2024-01-11T09:43:40;101224.16;;;3.82;80.24
50684;BME280;36654;45.042;38.994;2024-01-11T09:46:06;101201.06;;;3.73;79.97
50684;BME280;36654;45.042;38.994;2024-01-11T09:48:37;101200.28;;;3.76;80.03
50684;BME280;36654;45.042;38.994;2024-01-11T09:51:04;101201.25;;;3.78;80.07
50684;BME280;36654;45.042;38.994;2024-01-11T09:53:32;101191.03;;;3.84;80.33
50684;BME280;36654;45.042;38.994;2024-01-11T09:55:59;101193.00;;;3.88;80.32
50684;BME280;36654;45.042;38.994;2024-01-11T09:58:25;101180.09;;;3.93;80.30
50684;BME280;36654;45.042;38.994;2024-01-11T10:00:55;101176.00;;;3.99;80.36
50684;BME280;36654;45.042;38.994;2024-01-11T10:03:23;101162.31;;;4.06;80.26
50684;BME280;36654;45.042;38.994;2024-01-11T10:05:49;101145.03;;;4.11;80.23
50684;BME280;36654;45.042;38.994;2024-01-11T10:08:19;101145.97;;;4.12;80.05
50684;BME280;36654;45.042;38.994;2024-01-11T10:10:46;101154.00;;;4.17;79.82
50684;BME280;36654;45.042;38.994;2024-01-11T10:13:12;101135.59;;;4.15;79.63
50684;BME280;36654;45.042;38.994;2024-01-11T10:15:41;101118.97;;;4.15;79.42
50684;BME280;36654;45.042;38.994;2024-01-11T10:18:06;101124.59;;;4.24;79.42
50684;BME280;36654;45.042;38.994;2024-01-11T10:20:32;101117.56;;;4.23;79.20
50684;BME280;36654;45.042;38.994;2024-01-11T10:23:02;101111.19;;;4.37;78.91
50684;BME280;36654;45.042;38.994;2024-01-11T10:25:28;101113.06;;;4.41;78.61
50684;BME280;36654;45.042;38.994;2024-01-11T10:27:54;101109.63;;;4.42;78.59
50684;BME280;36654;45.042;38.994;2024-01-11T10:30:20;101039.28;;;4.13;78.35
50684;BME280;36654;45.042;38.994;2024-01-11T10:32:49;101074.44;;;4.37;78.17
50684;BME280;36654;45.042;38.994;2024-01-11T10:35:15;101091.84;;;4.35;78.35
50684;BME280;36654;45.042;38.994;2024-01-11T10:37:43;101082.09;;;4.32;78.21
50684;BME280;36654;45.042;38.994;2024-01-11T10:40:10;101066.09;;;4.26;78.27
50684;BME280;36654;45.042;38.994;2024-01-11T10:42:51;101045.72;;;4.21;78.00
50684;BME280;36654;45.042;38.994;2024-01-11T10:45:23;101064.53;;;4.31;78.21
50684;BME280;36654;45.042;38.994;2024-01-11T10:47:53;101051.50;;;4.33;78.15
50684;BME280;36654;45.042;38.994;2024-01-11T10:50:19;101041.00;;;4.33;78.16
50684;BME280;36654;45.042;38.994;2024-01-11T10:53:03;101037.09;;;4.44;78.17
50684;BME280;36654;45.042;38.994;2024-01-11T10:55:33;101042.78;;;4.55;77.97
50684;BME280;36654;45.042;38.994;2024-01-11T10:58:01;101036.88;;;4.61;77.76
50684;BME280;36654;45.042;38.994;2024-01-11T11:00:28;101029.47;;;4.73;77.70
50684;BME280;36654;45.042;38.994;2024-01-11T11:02:55;101004.56;;;4.63;76.99
50684;BME280;36654;45.042;38.994;2024-01-11T11:05:21;100956.59;;;4.45;77.08
50684;BME280;36654;45.042;38.994;2024-01-11T11:07:51;101001.47;;;4.73;76.79
50684;BME280;36654;45.042;38.994;2024-01-11T11:10:19;101004.28;;;4.78;76.60
50684;BME280;36654;45.042;38.994;2024-01-11T11:12:45;100936.38;;;4.42;76.62
50684;BME280;36654;45.042;38.994;2024-01-11T11:15:12;100984.72;;;4.70;76.77
50684;BME280;36654;45.042;38.994;2024-01-11T11:17:42;101001.72;;;4.80;76.81
50684;BME280;36654;45.042;38.994;2024-01-11T11:20:10;100997.38;;;4.80;76.89
50684;BME280;36654;45.042;38.994;2024-01-11T11:22:41;100993.88;;;4.81;76.92
50684;BME280;36654;45.042;38.994;2024-01-11T11:25:09;100983.25;;;4.78;76.82
50684;BME280;36654;45.042;38.994;2024-01-11T11:27:36;101002.81;;;4.85;76.79
50684;BME280;36654;45.042;38.994;2024-01-11T11:30:03;101002.72;;;4.83;76.97
50684;BME280;36654;45.042;38.994;2024-01-11T11:32:36;100946.59;;;4.57;76.77
50684;BME280;36654;45.042;38.994;2024-01-11T11:35:04;100992.09;;;4.80;76.90
50684;BME280;36654;45.042;38.994;2024-01-11T11:37:30;100983.25;;;4.78;77.25
50684;BME280;36654;45.042;38.994;2024-01-11T11:39:58;100985.03;;;4.79;77.14
50684;BME280;36654;45.042;38.994;2024-01-11T11:42:24;101002.63;;;4.80;77.12
50684;BME280;36654;45.042;38.994;2024-01-11T11:44:51;100992.09;;;4.80;77.26
50684;BME280;36654;45.042;38.994;2024-01-11T11:47:21;100980.72;;;4.80;77.35
50684;BME280;36654;45.042;38.994;2024-01-11T11:50:07;100982.41;;;4.79;77.44
50684;BME280;36654;45.042;38.994;2024-01-11T11:52:33;100940.28;;;4.53;77.66
50684;BME280;36654;45.042;38.994;2024-01-11T11:55:03;100987.66;;;4.79;77.79
50684;BME280;36654;45.042;38.994;2024-01-11T11:57:29;100993.78;;;4.78;78.34
50684;BME280;36654;45.042;38.994;2024-01-11T11:59:58;100969.00;;;4.71;78.63
50684;BME280;36654;45.042;38.994;2024-01-11T12:02:26;100963.13;;;4.79;78.79
50684;BME280;36654;45.042;38.994;2024-01-11T12:04:52;100966.97;;;4.87;78.89
50684;BME280;36654;45.042;38.994;2024-01-11T12:07:20;100896.22;;;4.69;78.50
50684;BME280;36654;45.042;38.994;2024-01-11T12:09:46;100927.28;;;5.03;78.52
50684;BME280;36654;45.042;38.994;2024-01-11T12:12:13;100937.25;;;5.12;78.06
50684;BME280;36654;45.042;38.994;2024-01-11T12:14:38;100929.47;;;5.15;77.73
50684;BME280;36654;45.042;38.994;2024-01-11T12:17:06;100932.53;;;5.27;77.52
50684;BME280;36654;45.042;38.994;2024-01-11T12:19:31;100930.28;;;5.38;77.13
50684;BME280;36654;45.042;38.994;2024-01-11T12:21:58;100922.47;;;5.39;77.04
50684;BME280;36654;45.042;38.994;2024-01-11T12:24:24;100877.06;;;5.19;76.56
50684;BME280;36654;45.042;38.994;2024-01-11T12:26:50;100918.47;;;5.51;76.53
50684;BME280;36654;45.042;38.994;2024-01-11T12:29:17;100886.06;;;5.52;76.33
50684;BME280;36654;45.042;38.994;2024-01-11T12:31:44;100893.75;;;5.46;76.06
50684;BME280;36654;45.042;38.994;2024-01-11T12:34:11;100922.75;;;5.49;75.83
50684;BME280;36654;45.042;38.994;2024-01-11T12:36:37;100893.47;;;5.38;75.84
50684;BME280;36654;45.042;38.994;2024-01-11T12:39:03;100891.69;;;5.37;75.90
50684;BME280;36654;45.042;38.994;2024-01-11T12:41:34;100889.44;;;5.48;75.69